Time;durP1;ratioP1;P1;durP2;ratioP2;P2;SDS_P1;SDS_P2;PMS_P1;PMS_P2;Temp;Humidity;BMP_temperature;BMP_pressure;BME280_temperature;BME280_humidity;BME280_pressure;Samples;Min_cycle;Max_cycle;Signal;HPM_P1;HPM_P2
2023/12/24 00:01:13;;;;;;;1366.25;999.90;;;28.60;99.90;;;;;;5032927;28;20398;-69
2023/12/24 00:03:39;;;;;;;1357.45;999.90;;;28.60;99.90;;;;;;5025338;28;20014;-67
2023/12/24 00:06:07;;;;;;;1357.72;999.90;;;28.60;99.90;;;;;;5012871;28;20493;-67
2023/12/24 00:08:35;;;;;;;1352.78;999.90;;;28.60;99.90;;;;;;5012807;28;20042;-67
2023/12/24 00:11:01;;;;;;;1373.00;999.90;;;28.60;99.90;;;;;;5012925;28;20471;-67
2023/12/24 00:13:29;;;;;;;1336.72;999.90;;;28.60;99.90;;;;;;5014572;28;20448;-68
2023/12/24 00:15:55;;;;;;;1396.80;999.90;;;28.60;99.90;;;;;;5024569;28;20352;-67
2023/12/24 00:18:22;;;;;;;1500.55;999.90;;;28.60;99.90;;;;;;5020996;28;20022;-66
2023/12/24 00:20:48;;;;;;;1596.63;999.90;;;28.60;99.90;;;;;;5036424;28;20033;-67
2023/12/24 00:23:15;;;;;;;1547.30;999.90;;;28.60;99.90;;;;;;5030889;28;20024;-67
2023/12/24 00:25:41;;;;;;;1530.05;999.90;;;28.60;99.90;;;;;;5016471;28;20032;-67
2023/12/24 00:28:08;;;;;;;1515.30;999.90;;;28.70;99.90;;;;;;5016343;28;20088;-67
2023/12/24 00:30:35;;;;;;;1468.53;999.90;;;28.70;99.90;;;;;;5016295;28;20112;-67
2023/12/24 00:33:02;;;;;;;1471.43;999.90;;;28.70;99.90;;;;;;5019430;28;20064;-67
2023/12/24 00:35:28;;;;;;;1565.00;999.90;;;28.70;99.90;;;;;;5035957;28;20102;-67
2023/12/24 00:37:56;;;;;;;1406.50;999.90;;;28.70;99.90;;;;;;5036212;28;20022;-67
2023/12/24 00:40:22;;;;;;;1458.13;999.90;;;28.80;99.90;;;;;;5036075;28;20037;-68
2023/12/24 00:42:49;;;;;;;1449.72;999.90;;;28.80;99.90;;;;;;5036621;28;20025;-69
2023/12/24 00:45:16;;;;;;;1491.13;999.90;;;28.80;99.90;;;;;;5036013;28;20025;-69
2023/12/24 00:47:42;;;;;;;1429.43;999.90;;;28.90;99.90;;;;;;5035928;28;20029;-69
2023/12/24 00:50:09;;;;;;;1467.22;999.90;;;28.80;99.90;;;;;;5036094;28;20390;-68
2023/12/24 00:52:36;;;;;;;1555.88;999.90;;;28.80;99.90;;;;;;5035859;28;20021;-68
2023/12/24 00:55:04;;;;;;;1574.43;999.90;;;28.80;99.90;;;;;;5036119;28;20381;-69
2023/12/24 00:57:31;;;;;;;1469.60;999.90;;;28.80;99.90;;;;;;5036112;28;20087;-69
2023/12/24 00:59:57;;;;;;;1463.78;999.90;;;28.90;99.90;;;;;;5036138;28;20080;-68
2023/12/24 01:02:24;;;;;;;1503.45;999.90;;;28.90;99.90;;;;;;5035635;28;20029;-68
2023/12/24 01:04:50;;;;;;;1400.95;999.90;;;28.90;99.90;;;;;;5035778;28;20500;-68
2023/12/24 01:07:17;;;;;;;1412.32;999.90;;;28.90;99.90;;;;;;5035720;28;20025;-68
2023/12/24 01:09:43;;;;;;;1400.45;999.90;;;28.90;99.90;;;;;;5035349;28;20128;-68
2023/12/24 01:12:10;;;;;;;1377.32;999.90;;;29.00;99.90;;;;;;5035648;28;20414;-68
2023/12/24 01:14:36;;;;;;;1526.00;999.90;;;29.00;99.90;;;;;;5035406;28;20177;-68
2023/12/24 01:17:03;;;;;;;1434.88;999.90;;;29.00;99.90;;;;;;5035522;28;20028;-68
2023/12/24 01:19:31;;;;;;;1509.00;999.90;;;29.00;99.90;;;;;;5035504;28;20059;-68
2023/12/24 01:21:57;;;;;;;1584.45;999.90;;;29.00;99.90;;;;;;5035254;28;20099;-67
2023/12/24 01:24:24;;;;;;;1447.72;999.90;;;29.10;99.90;;;;;;5035185;28;20064;-67
2023/12/24 01:26:50;;;;;;;1387.03;999.90;;;29.20;99.90;;;;;;5035357;28;20154;-68
2023/12/24 01:29:17;;;;;;;1613.15;999.90;;;29.20;99.90;;;;;;5034965;28;20036;-71
2023/12/24 01:31:43;;;;;;;1517.30;999.90;;;29.30;99.90;;;;;;5033804;28;20190;-70
2023/12/24 01:34:10;;;;;;;1595.03;999.90;;;29.30;99.90;;;;;;5035006;28;20381;-69
2023/12/24 01:36:39;;;;;;;1589.40;999.90;;;29.30;99.90;;;;;;5034915;28;20022;-69
2023/12/24 01:39:08;;;;;;;1576.60;999.90;;;29.30;99.90;;;;;;5035032;28;20022;-68
2023/12/24 01:41:35;;;;;;;1589.32;999.90;;;29.30;99.90;;;;;;5035033;28;20022;-69
2023/12/24 01:44:01;;;;;;;1582.13;999.90;;;29.30;99.90;;;;;;5034714;28;20017;-68
2023/12/24 01:46:28;;;;;;;1589.68;999.90;;;29.40;99.90;;;;;;5034861;28;20056;-69
2023/12/24 01:48:56;;;;;;;1616.95;999.90;;;29.40;99.90;;;;;;5034786;28;20026;-69
2023/12/24 01:51:24;;;;;;;1588.57;999.90;;;29.40;99.90;;;;;;5027854;28;20471;-68
2023/12/24 01:53:52;;;;;;;1612.95;999.90;;;29.40;99.90;;;;;;5019138;28;20382;-68
2023/12/24 01:56:21;;;;;;;1592.70;999.90;;;29.40;99.90;;;;;;5030177;28;20471;-69
2023/12/24 01:58:49;;;;;;;1391.07;999.90;;;29.40;99.90;;;;;;5015460;28;20026;-68
2023/12/24 02:01:16;;;;;;;1381.43;999.90;;;29.40;99.90;;;;;;5014962;28;20025;-68
2023/12/24 02:03:42;;;;;;;1530.57;999.90;;;29.50;99.90;;;;;;5014621;28;20022;-69
2023/12/24 02:06:10;;;;;;;1598.93;999.90;;;29.60;99.90;;;;;;5014388;28;20079;-69
2023/12/24 02:08:37;;;;;;;1563.97;999.90;;;29.50;99.90;;;;;;5021790;28;20044;-68
2023/12/24 02:11:04;;;;;;;1585.68;999.90;;;29.60;99.90;;;;;;5035475;28;20072;-68
2023/12/24 02:13:31;;;;;;;1590.03;999.90;;;29.60;99.90;;;;;;5048353;28;20032;-68
2023/12/24 02:16:01;;;;;;;1556.07;999.90;;;29.60;99.90;;;;;;5034513;28;20014;-68
2023/12/24 02:18:27;;;;;;;1500.93;999.90;;;29.60;99.90;;;;;;5029656;28;20053;-70
2023/12/24 02:21:02;;;;;;;1516.60;999.90;;;29.60;99.90;;;;;;5034745;28;20052;-68
2023/12/24 02:23:29;;;;;;;1423.60;999.90;;;29.60;99.90;;;;;;5050112;28;20032;-67
2023/12/24 02:26:01;;;;;;;1575.15;999.90;;;29.60;99.90;;;;;;5031507;28;20029;-68
2023/12/24 02:28:29;;;;;;;1573.63;999.90;;;29.60;99.90;;;;;;5030301;28;20037;-67
2023/12/24 02:30:59;;;;;;;1528.75;999.90;;;29.60;99.90;;;;;;5023108;28;20154;-68
2023/12/24 02:33:31;;;;;;;1469.68;999.90;;;29.70;99.90;;;;;;5031724;28;20033;-69
2023/12/24 02:35:59;;;;;;;1478.80;999.90;;;29.70;99.90;;;;;;5020119;28;20021;-67
2023/12/24 02:38:26;;;;;;;1579.15;999.90;;;29.80;99.90;;;;;;5032973;28;20032;-69
2023/12/24 02:40:53;;;;;;;1544.65;999.90;;;29.80;99.90;;;;;;5026811;28;20341;-68
2023/12/24 02:43:19;;;;;;;1589.07;999.90;;;29.90;99.90;;;;;;5033966;28;20121;-66
2023/12/24 02:45:46;;;;;;;1510.35;999.90;;;29.90;99.90;;;;;;5032430;28;20542;-67
2023/12/24 02:48:12;;;;;;;1605.18;999.90;;;29.80;99.90;;;;;;5035710;28;20076;-69
2023/12/24 02:50:38;;;;;;;1481.43;999.90;;;29.90;99.90;;;;;;5038725;28;20037;-68
2023/12/24 02:53:05;;;;;;;1528.68;999.90;;;29.90;99.90;;;;;;5051521;28;20470;-68
2023/12/24 02:55:31;;;;;;;1561.20;999.90;;;29.90;99.90;;;;;;5033578;28;20408;-68
2023/12/24 02:57:58;;;;;;;1547.13;999.90;;;29.90;99.90;;;;;;5029914;28;20049;-67
2023/12/24 03:00:25;;;;;;;1497.53;999.90;;;29.90;99.90;;;;;;5046674;28;20424;-69
2023/12/24 03:02:51;;;;;;;1537.95;999.90;;;30.00;99.90;;;;;;5030665;28;20051;-69
2023/12/24 03:05:18;;;;;;;1603.47;999.90;;;30.00;99.90;;;;;;5046882;28;20071;-68
2023/12/24 03:07:44;;;;;;;1572.72;999.90;;;30.00;99.90;;;;;;5042115;28;20022;-69
2023/12/24 03:10:11;;;;;;;1591.18;999.90;;;30.00;99.90;;;;;;5046452;28;20378;-68
2023/12/24 03:12:37;;;;;;;1552.25;999.90;;;30.00;99.90;;;;;;5036430;28;20090;-68
2023/12/24 03:15:04;;;;;;;1598.88;999.90;;;30.00;99.90;;;;;;5035198;28;20376;-66
2023/12/24 03:17:31;;;;;;;1385.57;999.90;;;30.00;99.90;;;;;;5031098;28;20018;-68
2023/12/24 03:19:57;;;;;;;1396.22;999.90;;;30.00;99.90;;;;;;5038205;28;20051;-68
2023/12/24 03:22:24;;;;;;;1484.22;999.90;;;30.10;99.90;;;;;;5031784;28;20106;-67
2023/12/24 03:24:51;;;;;;;1424.53;999.90;;;30.10;99.90;;;;;;5026240;28;20034;-67
2023/12/24 03:27:18;;;;;;;1398.82;999.90;;;30.20;99.90;;;;;;5017596;28;20026;-66
2023/12/24 03:29:44;;;;;;;1441.57;999.90;;;30.20;99.90;;;;;;5016888;28;20037;-68
2023/12/24 03:32:12;;;;;;;1493.22;999.90;;;30.20;99.90;;;;;;5021265;28;20028;-67
2023/12/24 03:34:38;;;;;;;1602.65;999.90;;;30.30;99.90;;;;;;5019434;28;20030;-66
2023/12/24 03:37:05;;;;;;;1605.50;999.90;;;30.40;99.90;;;;;;5013669;28;20467;-69
2023/12/24 03:39:31;;;;;;;1561.50;999.90;;;30.50;99.90;;;;;;5017371;28;20037;-68
2023/12/24 03:41:58;;;;;;;1507.18;999.90;;;30.60;99.90;;;;;;5019391;28;20049;-68
2023/12/24 03:44:27;;;;;;;1491.15;999.90;;;30.60;99.90;;;;;;5023961;28;20055;-69
2023/12/24 03:46:53;;;;;;;1574.32;999.90;;;30.60;99.90;;;;;;5024997;28;20450;-66
2023/12/24 03:49:20;;;;;;;1399.82;999.90;;;30.70;99.90;;;;;;5030245;28;20017;-68
2023/12/24 03:51:47;;;;;;;1425.45;999.90;;;30.70;99.90;;;;;;5033852;28;20535;-69
2023/12/24 03:54:14;;;;;;;1588.03;999.90;;;30.80;99.90;;;;;;5031708;28;20030;-67
2023/12/24 03:56:41;;;;;;;1574.65;999.90;;;30.80;99.90;;;;;;5036305;28;20103;-67
2023/12/24 03:59:07;;;;;;;1409.72;999.90;;;30.80;99.90;;;;;;5036682;28;20123;-67
2023/12/24 04:01:34;;;;;;;1194.65;999.90;;;30.80;99.90;;;;;;5036969;28;20431;-67
2023/12/24 04:04:01;;;;;;;1390.43;999.90;;;30.90;99.90;;;;;;5036073;28;20022;-67
2023/12/24 04:06:27;;;;;;;1415.50;999.90;;;30.90;99.90;;;;;;5036207;28;20053;-67
2023/12/24 04:08:54;;;;;;;1388.97;999.90;;;31.00;99.90;;;;;;5035273;28;20055;-68
2023/12/24 04:11:20;;;;;;;1541.05;999.90;;;31.10;99.90;;;;;;5035816;28;20104;-68
2023/12/24 04:13:46;;;;;;;1560.78;999.90;;;31.20;99.90;;;;;;5036065;28;20021;-67
2023/12/24 04:16:13;;;;;;;1261.60;999.90;;;31.20;99.90;;;;;;5036132;28;20096;-68
2023/12/24 04:18:40;;;;;;;1687.40;999.90;;;;;;;;;;5032440;28;20400;-68
2023/12/24 04:21:34;;;;;;;1565.95;999.90;;;;;;;;;;5082754;27;20404;-69
2023/12/24 04:24:01;;;;;;;1574.80;999.90;;;31.40;99.90;;;;;;5090330;28;20070;-67
2023/12/24 04:26:27;;;;;;;1516.30;999.90;;;31.40;99.90;;;;;;5087239;28;20500;-67
2023/12/24 04:28:54;;;;;;;1611.18;999.90;;;31.40;99.90;;;;;;5090279;28;20073;-66
2023/12/24 04:31:20;;;;;;;1428.97;999.90;;;31.30;99.90;;;;;;5090208;28;20115;-69
2023/12/24 04:33:47;;;;;;;1539.57;999.90;;;31.50;99.90;;;;;;5090136;28;20091;-66
2023/12/24 04:36:20;;;;;;;1538.80;999.90;;;31.50;99.90;;;;;;5090687;28;20048;-67
2023/12/24 04:38:47;;;;;;;1503.22;999.90;;;31.60;99.90;;;;;;5090436;28;20020;-68
2023/12/24 04:41:16;;;;;;;1563.78;999.90;;;31.60;99.90;;;;;;5090384;28;20036;-67
2023/12/24 04:43:43;;;;;;;1561.13;999.90;;;31.70;99.90;;;;;;5090599;28;20028;-66
2023/12/24 04:46:10;;;;;;;1566.30;999.90;;;31.80;99.90;;;;;;5090282;28;20024;-65
2023/12/24 04:48:36;;;;;;;1551.00;999.90;;;31.90;99.90;;;;;;5090471;28;20016;-66
2023/12/24 04:51:03;;;;;;;1568.40;999.90;;;32.00;99.90;;;;;;5090341;28;20107;-66
2023/12/24 04:53:29;;;;;;;1575.50;999.90;;;32.10;99.90;;;;;;5090138;28;20504;-65
2023/12/24 04:55:56;;;;;;;1543.80;999.90;;;32.00;99.90;;;;;;5090112;28;20032;-68
2023/12/24 04:58:22;;;;;;;1543.63;999.90;;;32.00;99.90;;;;;;5090353;28;20020;-67
2023/12/24 05:00:50;;;;;;;1569.00;999.90;;;32.00;99.90;;;;;;5089997;28;20198;-66
2023/12/24 05:03:16;;;;;;;1549.65;999.90;;;31.90;99.90;;;;;;5092918;28;20623;-68
2023/12/24 05:05:43;;;;;;;1586.30;999.90;;;31.80;99.90;;;;;;5096375;28;20074;-67
2023/12/24 05:08:09;;;;;;;1585.13;999.90;;;31.80;99.90;;;;;;5090010;28;20020;-69
2023/12/24 05:10:36;;;;;;;1562.00;999.90;;;31.70;99.90;;;;;;5090130;28;20465;-69
2023/12/24 05:13:02;;;;;;;1572.43;999.90;;;31.70;99.90;;;;;;5089899;28;20031;-72
2023/12/24 05:15:29;;;;;;;1563.47;999.90;;;31.70;99.90;;;;;;5090585;28;20061;-64
2023/12/24 05:17:55;;;;;;;1528.80;999.90;;;31.70;99.90;;;;;;5093227;28;20024;-67
2023/12/24 05:20:22;;;;;;;1561.22;999.90;;;31.60;99.90;;;;;;5075991;28;20039;-67
2023/12/24 05:22:48;;;;;;;1559.35;999.90;;;31.50;99.90;;;;;;5096824;28;20416;-66
2023/12/24 05:25:15;;;;;;;1523.60;999.90;;;31.50;99.90;;;;;;5098763;28;20024;-68
2023/12/24 05:27:41;;;;;;;1565.07;999.90;;;31.50;99.90;;;;;;5104166;28;20059;-66
2023/12/24 05:30:08;;;;;;;1571.63;999.90;;;31.50;99.90;;;;;;5082134;28;20020;-69
2023/12/24 05:32:34;;;;;;;1544.93;999.90;;;31.60;99.90;;;;;;5068539;28;20104;-69
2023/12/24 05:35:01;;;;;;;1512.35;999.90;;;31.60;99.90;;;;;;5089361;28;20024;-70
2023/12/24 05:37:27;;;;;;;1488.35;999.90;;;31.70;99.90;;;;;;5091033;28;20035;-69
2023/12/24 05:39:54;;;;;;;1567.35;999.90;;;31.80;99.90;;;;;;5084318;28;20060;-67
2023/12/24 05:42:20;;;;;;;1533.53;999.90;;;31.90;99.90;;;;;;5094407;28;20130;-70
2023/12/24 05:44:47;;;;;;;1573.10;999.90;;;31.80;99.90;;;;;;5076802;28;20480;-70
2023/12/24 05:47:13;;;;;;;1555.80;999.90;;;32.00;99.90;;;;;;5066591;28;20537;-70
2023/12/24 05:49:40;;;;;;;1538.60;999.90;;;32.10;99.90;;;;;;5072595;28;20047;-69
2023/12/24 05:52:06;;;;;;;1581.75;999.90;;;32.10;99.90;;;;;;5084202;28;20025;-69
2023/12/24 05:54:33;;;;;;;1570.82;999.90;;;32.20;99.90;;;;;;5071337;28;20108;-70
2023/12/24 05:56:59;;;;;;;1537.70;999.90;;;32.30;99.90;;;;;;5074755;28;20025;-68
2023/12/24 05:59:25;;;;;;;1576.47;999.90;;;32.30;99.90;;;;;;5065832;28;20028;-66
2023/12/24 06:01:52;;;;;;;1562.18;999.90;;;32.30;99.90;;;;;;5067238;28;20077;-68
2023/12/24 06:04:18;;;;;;;1592.63;999.90;;;32.30;99.90;;;;;;5068140;28;20017;-67
2023/12/24 06:06:45;;;;;;;1581.35;999.90;;;32.30;99.90;;;;;;5057142;28;20087;-66
2023/12/24 06:09:11;;;;;;;1561.65;999.90;;;32.20;99.90;;;;;;5055274;28;20017;-65
2023/12/24 06:11:38;;;;;;;1589.05;999.90;;;32.10;99.90;;;;;;5061089;28;20028;-66
2023/12/24 06:14:04;;;;;;;1579.68;999.90;;;32.10;99.90;;;;;;5065681;28;20008;-67
2023/12/24 06:16:31;;;;;;;1573.18;999.90;;;31.80;99.90;;;;;;5055603;28;20021;-67
2023/12/24 06:18:57;;;;;;;1595.38;999.90;;;31.40;99.90;;;;;;5055258;28;20115;-68
2023/12/24 06:21:24;;;;;;;1618.68;999.90;;;30.70;99.90;;;;;;5057640;28;20049;-69
2023/12/24 06:23:52;;;;;;;1614.78;999.90;;;30.50;99.90;;;;;;5057792;28;20055;-66
2023/12/24 06:26:19;;;;;;;1610.88;999.90;;;30.00;99.90;;;;;;5055920;28;20858;-66
2023/12/24 06:28:45;;;;;;;1572.30;999.90;;;29.80;99.90;;;;;;5061156;28;20021;-67
2023/12/24 06:31:19;;;;;;;1606.20;999.90;;;29.70;99.90;;;;;;5059201;28;20017;-68
2023/12/24 06:33:45;;;;;;;1623.25;999.90;;;29.70;99.90;;;;;;5063588;28;20466;-69
2023/12/24 06:36:11;;;;;;;1610.53;999.90;;;29.60;99.90;;;;;;5062999;28;20369;-68
2023/12/24 06:38:38;;;;;;;1604.93;999.90;;;29.60;99.90;;;;;;5061468;28;20021;-66
2023/12/24 06:41:04;;;;;;;1607.32;999.90;;;29.60;99.90;;;;;;5065251;28;20021;-68
2023/12/24 06:43:31;;;;;;;1612.85;999.90;;;29.60;99.90;;;;;;5065230;28;20021;-67
2023/12/24 06:45:58;;;;;;;1621.20;999.90;;;29.60;99.90;;;;;;5066884;28;20373;-67
2023/12/24 06:48:25;;;;;;;1621.47;999.90;;;29.50;99.90;;;;;;5066639;28;20017;-69
2023/12/24 06:50:51;;;;;;;1611.22;999.90;;;29.50;99.90;;;;;;5063865;28;20104;-70
2023/12/24 06:53:18;;;;;;;1609.85;999.90;;;29.50;99.90;;;;;;5064113;28;20029;-69
2023/12/24 06:55:44;;;;;;;1610.53;999.90;;;29.50;99.90;;;;;;5060813;28;20029;-67
2023/12/24 06:58:11;;;;;;;1610.22;999.90;;;29.60;99.90;;;;;;5063254;28;20031;-72
2023/12/24 07:00:38;;;;;;;1596.18;999.90;;;29.60;99.90;;;;;;5064146;28;20032;-68
2023/12/24 07:03:05;;;;;;;1620.20;999.90;;;29.50;99.90;;;;;;5063724;28;20017;-70
2023/12/24 07:05:35;;;;;;;1605.68;999.90;;;29.60;99.90;;;;;;5062714;28;20025;-69
2023/12/24 07:08:02;;;;;;;1605.88;999.90;;;29.60;99.90;;;;;;5063840;28;20069;-69
2023/12/24 07:10:29;;;;;;;1610.93;999.90;;;29.70;99.90;;;;;;5064711;28;20078;-69
2023/12/24 07:12:56;;;;;;;1598.55;999.90;;;29.70;99.90;;;;;;5063081;28;20087;-69
2023/12/24 07:15:23;;;;;;;1329.20;999.90;;;;;;;;;;5064818;28;20029;-69
2023/12/24 07:17:50;;;;;;;1547.78;999.90;;;29.90;99.90;;;;;;5063673;28;20033;-70
2023/12/24 07:20:17;;;;;;;981.22;622.70;;;;;;;;;;5060684;28;20111;-68
2023/12/24 07:22:44;;;;;;;984.25;655.63;;;30.00;99.90;;;;;;5069788;28;20107;-68
2023/12/24 07:25:11;;;;;;;928.85;542.85;;;30.00;99.90;;;;;;5069811;28;20017;-69
2023/12/24 07:27:38;;;;;;;984.78;664.58;;;30.00;99.90;;;;;;5055135;28;20496;-68
2023/12/24 07:30:05;;;;;;;984.58;671.80;;;30.00;99.90;;;;;;5063581;28;20112;-69
2023/12/24 07:32:32;;;;;;;959.63;627.13;;;30.00;99.90;;;;;;5062252;28;20020;-68
2023/12/24 07:34:58;;;;;;;987.45;681.88;;;30.00;99.90;;;;;;5063718;28;20100;-66
2023/12/24 07:37:25;;;;;;;963.95;641.65;;;30.10;99.90;;;;;;5060111;28;20511;-69
2023/12/24 07:39:51;;;;;;;991.28;690.78;;;30.00;99.90;;;;;;5062083;28;20048;-67
2023/12/24 07:42:18;;;;;;;899.85;479.10;;;30.00;99.90;;;;;;5062247;28;20029;-66
2023/12/24 07:44:47;;;;;;;983.42;685.00;;;30.10;99.90;;;;;;5061687;28;20376;-66
2023/12/24 07:47:13;;;;;;;909.63;488.10;;;30.20;99.90;;;;;;5061321;28;20465;-66
2023/12/24 07:49:39;;;;;;;992.95;704.05;;;30.20;99.90;;;;;;5060339;28;20112;-65
2023/12/24 07:52:06;;;;;;;988.53;699.90;;;30.30;99.90;;;;;;5059752;28;20075;-66
2023/12/24 07:54:32;;;;;;;986.30;706.92;;;30.30;99.90;;;;;;5051208;28;20028;-67
2023/12/24 07:56:59;;;;;;;994.55;720.10;;;30.20;99.90;;;;;;5051907;28;20025;-68
2023/12/24 07:59:25;;;;;;;991.97;698.65;;;30.20;99.90;;;;;;5052682;28;20031;-67
2023/12/24 08:01:52;;;;;;;995.97;720.08;;;30.30;99.90;;;;;;5052877;28;20132;-67
2023/12/24 08:04:18;;;;;;;995.63;719.78;;;30.30;99.90;;;;;;5053139;28;20025;-67
2023/12/24 08:06:45;;;;;;;990.50;711.13;;;30.40;99.90;;;;;;5071531;28;20465;-67
2023/12/24 08:09:11;;;;;;;985.38;704.47;;;30.40;99.90;;;;;;5073286;28;20421;-67
2023/12/24 08:11:38;;;;;;;992.53;715.58;;;30.40;99.90;;;;;;5073138;28;20028;-67
2023/12/24 08:14:05;;;;;;;990.30;710.47;;;30.40;99.90;;;;;;5073490;28;20024;-66
2023/12/24 08:16:32;;;;;;;996.00;718.03;;;30.40;99.90;;;;;;5072876;28;20103;-67
2023/12/24 08:18:59;;;;;;;927.17;550.45;;;30.40;99.90;;;;;;5072992;28;20458;-66
2023/12/24 08:21:25;;;;;;;977.22;667.30;;;30.40;99.90;;;;;;5072803;28;20049;-66
2023/12/24 08:23:52;;;;;;;927.95;541.67;;;30.40;99.90;;;;;;5072854;28;20100;-65
2023/12/24 08:26:18;;;;;;;938.17;568.50;;;30.40;99.90;;;;;;5073048;28;20027;-65
2023/12/24 08:28:45;;;;;;;993.63;719.33;;;30.40;99.90;;;;;;5072991;28;20013;-66
2023/12/24 08:31:11;;;;;;;940.65;584.97;;;30.40;99.90;;;;;;5072963;28;20029;-66
2023/12/24 08:33:38;;;;;;;937.70;572.95;;;30.40;99.90;;;;;;5072832;28;20591;-66
2023/12/24 08:36:06;;;;;;;997.28;718.42;;;30.40;99.90;;;;;;5072815;28;20029;-67
2023/12/24 08:38:33;;;;;;;924.92;526.90;;;30.50;99.90;;;;;;5073169;28;20029;-66
2023/12/24 08:40:59;;;;;;;935.85;551.95;;;30.50;99.90;;;;;;5072681;28;20032;-66
2023/12/24 08:43:26;;;;;;;1009.47;736.17;;;30.50;99.90;;;;;;5072884;28;20559;-66
2023/12/24 08:45:52;;;;;;;994.50;704.63;;;30.50;99.90;;;;;;5072799;28;20020;-69
2023/12/24 08:48:19;;;;;;;1004.05;733.75;;;30.50;99.90;;;;;;5072572;28;20108;-68
2023/12/24 08:50:45;;;;;;;1016.35;753.15;;;30.50;99.90;;;;;;5072854;28;20047;-66
2023/12/24 08:53:12;;;;;;;1002.28;721.35;;;30.50;99.90;;;;;;5072736;28;20029;-66
2023/12/24 08:55:38;;;;;;;1015.50;739.70;;;30.60;99.90;;;;;;5072403;28;20111;-66
2023/12/24 08:58:05;;;;;;;1005.05;721.60;;;30.60;99.90;;;;;;5072594;28;20477;-66
2023/12/24 09:00:31;;;;;;;937.95;546.42;;;30.60;99.90;;;;;;5072658;28;20054;-65
2023/12/24 09:02:58;;;;;;;1022.25;751.22;;;30.60;99.90;;;;;;5072369;28;20099;-66
2023/12/24 09:05:24;;;;;;;1015.67;739.00;;;30.60;99.90;;;;;;5072603;28;20033;-66
2023/12/24 09:07:51;;;;;;;1015.47;725.88;;;30.50;99.90;;;;;;5075695;28;20040;-65
2023/12/24 09:10:17;;;;;;;1018.60;739.30;;;30.60;99.90;;;;;;5074623;28;20040;-66
2023/12/24 09:12:44;;;;;;;1010.40;721.85;;;30.60;99.90;;;;;;5075022;28;20032;-66
2023/12/24 09:15:10;;;;;;;951.88;569.78;;;30.60;99.90;;;;;;5075678;28;20030;-66
2023/12/24 09:17:37;;;;;;;1028.30;747.33;;;30.60;99.90;;;;;;5075731;28;20025;-65
2023/12/24 09:20:05;;;;;;;1017.80;728.05;;;30.50;99.90;;;;;;5075648;28;20405;-65
2023/12/24 09:22:32;;;;;;;1015.70;738.42;;;30.50;99.90;;;;;;5075889;28;20077;-66
2023/12/24 09:24:58;;;;;;;1008.95;718.92;;;30.50;99.90;;;;;;5075856;28;20021;-65
2023/12/24 09:27:25;;;;;;;1002.67;712.42;;;30.40;99.90;;;;;;5076004;28;20032;-66
2023/12/24 09:29:51;;;;;;;1008.92;732.17;;;30.30;99.90;;;;;;5075946;28;20029;-66
2023/12/24 09:32:18;;;;;;;1008.53;728.33;;;30.30;99.90;;;;;;5075720;28;20032;-65
2023/12/24 09:34:45;;;;;;;1001.88;703.65;;;30.40;99.90;;;;;;5076033;28;20036;-66
2023/12/24 09:37:12;;;;;;;995.70;700.28;;;30.40;99.90;;;;;;5075910;28;20487;-66
2023/12/24 09:39:39;;;;;;;909.65;495.63;;;30.40;99.90;;;;;;5075539;28;20056;-66
2023/12/24 09:42:06;;;;;;;993.47;704.95;;;30.30;99.90;;;;;;5075721;28;20086;-65
2023/12/24 09:44:34;;;;;;;990.38;698.25;;;30.30;99.90;;;;;;5075727;28;20025;-65
2023/12/24 09:47:00;;;;;;;912.17;518.33;;;30.30;99.90;;;;;;5075437;28;20029;-66
2023/12/24 09:49:26;;;;;;;993.90;722.45;;;30.30;99.90;;;;;;5075649;28;20020;-64
2023/12/24 09:51:54;;;;;;;917.47;528.25;;;30.30;99.90;;;;;;5075647;28;20017;-66
2023/12/24 09:54:21;;;;;;;990.67;701.67;;;30.30;99.90;;;;;;5075420;28;20023;-65
2023/12/24 09:56:47;;;;;;;992.60;704.85;;;30.30;99.90;;;;;;5075407;28;20089;-66
2023/12/24 09:59:14;;;;;;;990.65;709.22;;;30.30;99.90;;;;;;5075395;28;20025;-65
2023/12/24 10:01:45;;;;;;;999.10;726.80;;;30.30;99.90;;;;;;5075373;28;20095;-65
2023/12/24 10:04:14;;;;;;;912.20;488.30;;;30.30;99.90;;;;;;5075448;28;20020;-65
2023/12/24 10:07:00;;;;;;;933.22;547.13;;;30.30;99.90;;;;;;5073531;28;20013;-66
2023/12/24 10:09:49;;;;;;;1003.35;719.28;;;30.30;99.90;;;;;;5059311;28;20517;-67
2023/12/24 10:12:16;;;;;;;1008.67;722.60;;;30.20;99.90;;;;;;5055676;28;20436;-66
2023/12/24 10:14:56;;;;;;;1009.50;705.78;;;30.20;99.90;;;;;;5055084;28;20112;-68
2023/12/24 10:17:34;;;;;;;923.63;498.88;;;30.20;99.90;;;;;;5073860;28;20028;-67
2023/12/24 10:20:04;;;;;;;1018.03;737.53;;;30.30;99.90;;;;;;5075506;28;20500;-67
2023/12/24 10:22:30;;;;;;;1010.72;723.47;;;30.20;99.90;;;;;;5072482;28;20022;-65
2023/12/24 10:25:01;;;;;;;926.70;510.88;;;30.20;99.90;;;;;;5063699;28;20027;-66
2023/12/24 10:27:28;;;;;;;914.90;496.30;;;30.20;99.90;;;;;;5068358;28;20024;-66
2023/12/24 10:30:07;;;;;;;907.20;479.95;;;30.20;99.90;;;;;;5073639;28;20024;-65
2023/12/24 10:32:33;;;;;;;909.53;493.83;;;30.10;99.90;;;;;;5073348;28;20028;-64
2023/12/24 10:35:00;;;;;;;991.67;692.00;;;30.10;99.90;;;;;;5073870;28;20059;-65
2023/12/24 10:37:29;;;;;;;892.90;448.38;;;30.10;99.90;;;;;;5073854;28;20052;-65
2023/12/24 10:40:08;;;;;;;1018.20;649.20;;;30.10;99.90;;;;;;5073706;28;20670;-65
2023/12/24 10:42:36;;;;;;;1071.53;698.72;;;30.10;99.90;;;;;;5073594;28;20024;-64
2023/12/24 10:45:04;;;;;;;1012.20;679.83;;;30.10;99.90;;;;;;5073735;28;20024;-65
2023/12/24 10:47:31;;;;;;;1048.97;708.00;;;30.10;99.90;;;;;;5073810;28;20035;-64
2023/12/24 10:49:57;;;;;;;1098.47;716.15;;;30.00;99.90;;;;;;5064053;28;20029;-64
2023/12/24 10:52:24;;;;;;;1088.60;716.00;;;30.00;99.90;;;;;;5054795;28;20036;-66
2023/12/24 10:54:54;;;;;;;1067.95;709.70;;;30.00;99.90;;;;;;5063659;28;20020;-66
2023/12/24 10:58:00;;;;;;;970.65;519.83;;;30.00;99.90;;;;;;5064771;28;20032;-68
2023/12/24 11:00:27;;;;;;;1051.00;708.35;;;30.00;99.90;;;;;;5065723;28;20025;-64
2023/12/24 11:02:54;;;;;;;1083.72;721.72;;;29.90;99.90;;;;;;5063964;28;20013;-64
2023/12/24 11:05:44;;;;;;;1030.53;634.45;;;29.90;99.90;;;;;;5064246;28;20531;-65
2023/12/24 11:08:21;;;;;;;987.60;500.92;;;29.90;99.90;;;;;;5065618;28;20025;-67
2023/12/24 11:11:01;;;;;;;1011.38;507.83;;;29.90;99.90;;;;;;5065891;28;20028;-66
2023/12/24 11:13:42;;;;;;;1121.82;727.97;;;29.80;99.90;;;;;;5057999;28;20028;-65
2023/12/24 11:16:10;;;;;;;1075.03;678.07;;;29.80;99.90;;;;;;5055104;28;20036;-66
2023/12/24 11:18:47;;;;;;;1092.32;703.72;;;29.80;99.90;;;;;;5054854;28;20258;-63
2023/12/24 11:21:20;;;;;;;1074.72;726.00;;;29.70;99.90;;;;;;5054866;28;20041;-65
2023/12/24 11:24:08;;;;;;;1064.63;705.40;;;29.70;99.90;;;;;;5054951;28;20043;-66
2023/12/24 11:26:35;;;;;;;1061.95;729.95;;;29.70;99.90;;;;;;5054958;28;20029;-64
2023/12/24 11:29:22;;;;;;;1076.97;710.13;;;29.80;99.90;;;;;;5054489;28;20466;-66
2023/12/24 11:31:49;;;;;;;1027.55;706.08;;;29.70;99.90;;;;;;5054522;28;20036;-66
2023/12/24 11:34:32;;;;;;;1024.72;693.90;;;29.60;99.90;;;;;;5054793;28;20032;-65
2023/12/24 11:37:04;;;;;;;1000.30;679.20;;;;;;;;;;5054803;28;20021;-69
2023/12/24 11:39:51;;;;;;;1002.53;685.00;;;;;;;;;;5054433;28;20025;-66
2023/12/24 11:42:17;;;;;;;1007.30;693.67;;;;;;;;;;5052359;28;20033;-66
2023/12/24 11:44:44;;;;;;;925.63;504.27;;;;;;;;;;5054476;28;20025;-65
2023/12/24 11:47:19;;;;;;;1022.28;726.25;;;;;;;;;;5054195;28;20470;-65
2023/12/24 11:49:48;;;;;;;927.42;495.75;;;;;;;;;;5054346;28;20470;-70
2023/12/24 11:52:15;;;;;;;1037.20;698.45;;;;;;;;;;5054218;28;20104;-71
2023/12/24 11:54:41;;;;;;;1028.43;693.85;;;;;;;;;;5063727;28;20029;-67
2023/12/24 11:57:08;;;;;;;1039.93;692.45;;;;;;;;;;5057666;28;20103;-66
2023/12/24 11:59:34;;;;;;;942.55;486.15;;;;;;;;;;5054309;28;20021;-65
2023/12/24 12:02:03;;;;;;;1039.22;712.20;;;;;;;;;;5054017;28;20056;-67
2023/12/24 12:04:30;;;;;;;1026.57;687.28;;;;;;;;;;5054087;28;20029;-68
2023/12/24 12:06:57;;;;;;;933.25;443.52;;;;;;;;;;5072457;28;20021;-66
2023/12/24 12:09:23;;;;;;;1025.43;706.35;;;;;;;;;;5069569;28;20423;-66